Time;durP1;ratioP1;P1;durP2;ratioP2;P2;SDS_P1;SDS_P2;PMS_P1;PMS_P2;Temp;Humidity;BMP_temperature;BMP_pressure;BME280_temperature;BME280_humidity;BME280_pressure;Samples;Min_cycle;Max_cycle;Signal;HPM_P1;HPM_P2
2022/03/22 00:00:51;;;;;;;27.70;20.27;;;;;;;8.33;62.43;101828.66;5032440;28;20045;-50
2022/03/22 00:03:24;;;;;;;25.40;19.02;;;;;;;8.30;62.09;101832.00;5042221;28;20049;-53
2022/03/22 00:05:54;;;;;;;27.20;21.27;;;;;;;8.31;62.50;101830.03;5048775;28;20403;-50
2022/03/22 00:08:22;;;;;;;30.13;20.92;;;;;;;8.27;62.42;101831.66;5047179;28;20048;-50
2022/03/22 00:10:50;;;;;;;25.77;20.40;;;;;;;8.22;63.36;101829.69;5048637;28;20052;-53
2022/03/22 00:13:17;;;;;;;28.73;20.30;;;;;;;8.22;63.21;101831.66;5050535;28;20514;-53
2022/03/22 00:15:45;;;;;;;26.02;19.23;;;;;;;8.21;62.29;101835.50;5044649;28;20390;-54
2022/03/22 00:18:15;;;;;;;25.45;19.65;;;;;;;8.17;62.56;101839.91;5046166;28;20048;-52
2022/03/22 00:20:44;;;;;;;;;;;;;;;8.09;62.20;101835.69;5052270;28;20071;-56
2022/03/22 00:23:11;;;;;;;25.00;19.00;;;;;;;8.07;61.98;101832.34;5041573;28;19928;-51
2022/03/22 00:25:39;;;;;;;28.83;21.13;;;;;;;8.03;62.84;101826.50;5032120;28;20510;-51
2022/03/22 00:28:07;;;;;;;23.88;19.25;;;;;;;8.02;62.81;101835.06;5032195;28;20060;-51
2022/03/22 00:30:35;;;;;;;26.48;19.15;;;;;;;7.99;62.71;101838.38;5041339;28;20056;-53
2022/03/22 00:33:06;;;;;;;26.50;18.98;;;;;;;7.93;61.77;101840.25;5049409;28;20041;-52
2022/03/22 00:35:36;;;;;;;26.75;19.88;;;;;;;7.89;62.25;101833.56;5031863;28;20060;-52
2022/03/22 00:38:11;;;;;;;27.08;19.48;;;;;;;7.86;61.88;101834.94;5038996;28;20048;-51
2022/03/22 00:40:39;;;;;;;25.05;18.98;;;;;;;7.82;62.64;101838.50;5038497;28;20481;-53
2022/03/22 00:43:07;;;;;;;26.83;19.77;;;;;;;7.81;62.89;101839.59;5043264;28;20405;-54
2022/03/22 00:45:36;;;;;;;24.98;18.95;;;;;;;7.79;62.73;101828.78;5044382;28;20053;-49
2022/03/22 00:48:05;;;;;;;24.33;18.35;;;;;;;7.79;62.27;101839.88;5049010;28;20052;-52
2022/03/22 00:50:35;;;;;;;24.55;19.17;;;;;;;7.76;62.47;101836.78;5042083;28;20503;-51
2022/03/22 00:53:07;;;;;;;26.58;19.38;;;;;;;7.72;62.66;101840.06;5050456;28;20057;-53
2022/03/22 00:55:40;;;;;;;25.33;19.10;;;;;;;7.72;62.00;101834.50;5055007;28;20064;-50
2022/03/22 00:58:08;;;;;;;24.75;18.30;;;;;;;7.70;62.76;101830.31;5054871;28;20544;-51
2022/03/22 01:00:35;;;;;;;26.55;19.08;;;;;;;7.67;62.67;101842.78;5036323;28;20060;-51
2022/03/22 01:03:06;;;;;;;26.02;19.05;;;;;;;7.61;62.87;101840.22;5043337;28;20060;-50
2022/03/22 01:05:35;;;;;;;23.92;18.20;;;;;;;7.62;62.10;101842.75;5055379;28;20114;-51
2022/03/22 01:08:06;;;;;;;23.92;18.95;;;;;;;7.60;63.06;101835.75;5047044;28;20057;-54
2022/03/22 01:10:36;;;;;;;24.55;17.73;;;;;;;7.60;63.28;101838.53;5035651;28;20049;-52
2022/03/22 01:13:04;;;;;;;22.05;16.95;;;;;;;7.58;62.54;101836.03;5048848;28;20075;-53
2022/03/22 01:15:33;;;;;;;25.50;18.30;;;;;;;7.58;62.46;101836.03;5051460;28;20045;-51
2022/03/22 01:18:05;;;;;;;26.40;19.27;;;;;;;7.57;62.82;101834.34;5046941;28;20049;-55
2022/03/22 01:20:33;;;;;;;23.02;18.33;;;;;;;7.53;62.70;101833.19;5036297;28;20494;-54
2022/03/22 01:23:03;;;;;;;26.38;19.90;;;;;;;7.50;62.67;101831.78;5039009;28;20046;-50
2022/03/22 01:25:34;;;;;;;22.55;17.25;;;;;;;7.45;62.87;101828.13;5049820;28;20057;-50
2022/03/22 01:28:03;;;;;;;23.95;18.48;;;;;;;7.45;62.46;101833.66;5054250;28;20053;-51
2022/03/22 01:30:31;;;;;;;28.88;18.83;;;;;;;7.40;63.53;101833.63;5045150;28;20049;-50
2022/03/22 01:32:59;;;;;;;25.40;18.42;;;;;;;7.39;63.13;101834.69;5048560;28;20064;-50
2022/03/22 01:35:27;;;;;;;26.90;19.87;;;;;;;7.38;63.06;101821.94;5053912;28;20053;-50
2022/03/22 01:37:56;;;;;;;26.38;19.38;;;;;;;7.38;63.05;101830.25;5053986;28;20498;-50
2022/03/22 01:40:25;;;;;;;24.75;18.23;;;;;;;7.36;63.34;101826.91;5048341;28;20052;-50
2022/03/22 01:42:54;;;;;;;26.13;20.13;;;;;;;7.37;63.26;101831.34;5044608;28;20494;-51
2022/03/22 01:45:21;;;;;;;28.20;21.05;;;;;;;7.34;63.62;101827.16;5048090;28;20474;-53
2022/03/22 01:47:50;;;;;;;25.80;19.85;;;;;;;7.34;63.27;101826.34;5052328;28;20053;-55
2022/03/22 01:50:19;;;;;;;32.30;20.08;;;;;;;7.34;63.34;101835.47;5054532;28;20052;-50
2022/03/22 01:52:47;;;;;;;25.20;20.52;;;;;;;7.30;63.66;101826.84;5049283;28;20064;-54
2022/03/22 01:55:17;;;;;;;25.75;18.90;;;;;;;7.29;64.04;101827.94;5046907;28;20045;-56
2022/03/22 01:57:45;;;;;;;;;;;;;;;7.23;63.91;101820.66;5049019;28;20057;-51
2022/03/22 02:00:15;;;;;;;26.27;18.25;;;;;;;7.22;63.37;101830.06;5054441;28;20377;-51
2022/03/22 02:08:17;;;;;;;24.33;19.20;;;;;;;7.20;63.16;101812.88;5059932;28;20064;-50
2022/03/22 02:10:45;;;;;;;20.95;17.38;;;;;;;7.18;63.32;101809.53;5043678;28;20056;-51
2022/03/22 02:13:13;;;;;;;23.05;17.88;;;;;;;7.17;63.44;101810.63;5040182;28;20049;-54
2022/03/22 02:15:43;;;;;;;26.70;18.63;;;;;;;7.15;63.35;101807.28;5049164;28;20053;-50
2022/03/22 02:18:10;;;;;;;23.10;16.67;;;;;;;7.13;62.61;101812.22;5053979;28;20060;-52
2022/03/22 02:20:38;;;;;;;23.65;17.90;;;;;;;7.09;63.21;101809.13;5052764;28;20407;-53
2022/03/22 02:23:09;;;;;;;23.58;17.98;;;;;;;7.06;63.40;101808.84;5054173;28;20049;-52
2022/03/22 02:25:38;;;;;;;23.70;18.40;;;;;;;7.05;63.17;101812.69;5053214;28;20049;-50
2022/03/22 02:28:06;;;;;;;23.88;18.42;;;;;;;7.05;63.01;101804.38;5049529;28;20057;-54
2022/03/22 02:30:34;;;;;;;24.33;18.15;;;;;;;7.06;63.35;101808.84;5045922;28;20049;-53
2022/03/22 02:33:03;;;;;;;25.90;18.33;;;;;;;7.01;63.21;101806.81;5050854;28;20049;-53
2022/03/22 02:35:31;;;;;;;26.58;19.45;;;;;;;7.04;63.41;101814.63;5046146;28;20405;-52
2022/03/22 02:37:59;;;;;;;25.02;17.77;;;;;;;7.00;64.10;101809.84;5052085;28;20053;-52
2022/03/22 02:40:27;;;;;;;27.25;18.73;;;;;;;7.00;63.97;101812.63;5050320;28;20073;-55
2022/03/22 02:43:00;;;;;;;26.63;18.88;;;;;;;6.98;63.54;101814.81;5052906;28;20056;-51
2022/03/22 02:45:28;;;;;;;25.40;17.98;;;;;;;6.92;63.61;101805.59;5039556;28;20049;-54
2022/03/22 02:47:56;;;;;;;20.67;17.52;;;;;;;6.88;62.90;101804.44;5042225;28;20060;-51
2022/03/22 02:50:24;;;;;;;23.30;17.85;;;;;;;6.87;63.52;101814.69;5053325;28;20053;-52
2022/03/22 02:52:51;;;;;;;23.65;17.50;;;;;;;6.82;63.17;101811.81;5040906;28;20053;-53
2022/03/22 02:55:20;;;;;;;24.17;16.80;;;;;;;6.82;62.91;101817.38;5035312;28;20060;-50
2022/03/22 02:57:48;;;;;;;21.65;16.98;;;;;;;6.80;62.99;101811.25;5038253;28;20045;-50
2022/03/22 03:00:18;;;;;;;22.75;17.98;;;;;;;6.77;62.55;101809.00;5033493;28;20049;-54
2022/03/22 03:02:48;;;;;;;23.23;16.90;;;;;;;6.68;62.87;101814.16;5045343;28;20056;-53
2022/03/22 03:05:15;;;;;;;23.38;17.90;;;;;;;6.69;63.35;101817.75;5042533;28;20053;-51
2022/03/22 03:07:42;;;;;;;24.00;18.35;;;;;;;6.63;63.43;101819.59;5038012;28;20041;-50
2022/03/22 03:10:10;;;;;;;22.38;17.80;;;;;;;6.62;63.69;101812.41;5050206;28;20076;-53
2022/03/22 03:12:38;;;;;;;20.67;16.50;;;;;;;6.59;63.53;101806.53;5041300;28;20056;-54
2022/03/22 03:15:07;;;;;;;22.90;18.02;;;;;;;6.61;63.55;101812.63;5033042;28;20048;-54
2022/03/22 03:17:36;;;;;;;20.15;16.73;;;;;;;6.59;63.12;101809.28;5049774;28;20053;-53
2022/03/22 03:20:06;;;;;;;23.23;18.45;;;;;;;6.56;62.76;101812.59;5046620;28;20053;-54
2022/03/22 03:22:34;;;;;;;22.67;17.45;;;;;;;6.52;63.51;101812.25;5038635;28;20056;-53
2022/03/22 03:25:02;;;;;;;25.55;17.48;;;;;;;6.53;63.46;101821.38;5041592;28;20049;-50
2022/03/22 03:27:30;;;;;;;25.50;18.35;;;;;;;6.49;63.54;101812.75;5046039;28;20049;-51
2022/03/22 03:29:57;;;;;;;20.63;15.98;;;;;;;6.46;63.95;101813.25;5039003;28;20100;-51
2022/03/22 03:32:25;;;;;;;21.35;15.88;;;;;;;6.45;63.68;101817.97;5046189;28;20051;-50
2022/03/22 03:34:53;;;;;;;18.75;14.88;;;;;;;6.41;62.79;101827.84;5044143;28;20065;-53
2022/03/22 03:37:23;;;;;;;20.52;16.05;;;;;;;6.39;62.84;101823.69;5041278;28;20052;-50
2022/03/22 03:39:51;;;;;;;19.58;16.13;;;;;;;6.33;63.32;101819.97;5036406;28;20057;-52
2022/03/22 03:42:18;;;;;;;20.90;15.02;;;;;;;6.30;63.31;101820.50;5043315;28;20054;-50
2022/03/22 03:47:31;;;;;;;21.38;15.48;;;;;;;6.25;63.07;101820.41;5040010;28;20421;-52
2022/03/22 03:50:01;;;;;;;20.50;15.88;;;;;;;6.18;62.75;101828.06;5039778;28;20497;-51
2022/03/22 03:52:30;;;;;;;23.92;15.82;;;;;;;6.16;62.64;101824.69;5041221;28;20107;-54
2022/03/22 03:54:59;;;;;;;19.83;15.65;;;;;;;6.10;62.99;101838.41;5032899;28;20045;-54
2022/03/22 03:57:26;;;;;;;17.92;14.32;;;;;;;6.11;63.30;101828.22;5032697;28;20509;-51
2022/03/22 03:59:55;;;;;;;20.67;15.68;;;;;;;6.08;63.08;101832.31;5046288;28;20409;-52
2022/03/22 04:02:24;;;;;;;22.27;16.08;;;;;;;6.07;63.32;101836.16;5044148;28;20065;-53
2022/03/22 04:04:52;;;;;;;22.75;16.55;;;;;;;6.02;63.24;101836.06;5050521;28;20053;-51
2022/03/22 04:07:22;;;;;;;20.42;16.05;;;;;;;6.02;63.79;101829.72;5051548;28;20047;-54
2022/03/22 04:09:50;;;;;;;20.08;15.80;;;;;;;5.99;63.41;101833.81;5051577;28;20060;-53
2022/03/22 04:12:22;;;;;;;21.50;15.88;;;;;;;6.00;63.63;101832.72;5052060;28;20060;-51
2022/03/22 04:14:51;;;;;;;19.98;15.05;;;;;;;6.00;63.23;101832.72;5051700;28;20445;-51
2022/03/22 04:17:19;;;;;;;19.83;15.63;;;;;;;5.98;63.40;101831.28;5051348;28;20052;-50
2022/03/22 04:19:47;;;;;;;19.10;13.93;;;;;;;5.95;63.43;101838.16;5043935;28;20475;-52
2022/03/22 04:22:15;;;;;;;18.05;14.10;;;;;;;5.94;63.32;101832.84;5036079;28;20048;-54
2022/03/22 04:24:43;;;;;;;19.35;13.48;;;;;;;5.90;63.28;101838.91;5051104;28;20072;-54
2022/03/22 04:32:53;;;;;;;17.00;13.40;;;;;;;5.80;63.33;101840.63;5036481;28;20056;-53
2022/03/22 04:35:24;;;;;;;18.63;13.50;;;;;;;5.79;63.16;101844.47;5049791;28;20067;-50
2022/03/22 04:37:52;;;;;;;17.45;14.50;;;;;;;5.77;62.48;101839.19;5036331;28;20410;-53
2022/03/22 04:40:21;;;;;;;18.25;13.82;;;;;;;5.74;62.74;101838.88;5040767;28;20045;-54
2022/03/22 04:42:51;;;;;;;22.40;15.35;;;;;;;5.68;63.12;101843.44;5036123;28;20045;-50
2022/03/22 04:45:18;;;;;;;20.02;15.27;;;;;;;5.67;63.03;101844.56;5048192;28;20075;-52
2022/03/22 04:47:46;;;;;;;19.73;14.75;;;;;;;5.65;63.16;101846.72;5037211;28;20072;-50
2022/03/22 04:50:16;;;;;;;20.65;15.75;;;;;;;5.64;62.66;101856.91;5032124;28;20052;-51
2022/03/22 04:58:26;;;;;;;22.30;16.63;;;;;;;5.54;63.06;101851.19;5027911;28;20069;-50
2022/03/22 05:00:54;;;;;;;22.15;15.95;;;;;;;5.53;62.97;101849.53;5035064;28;20056;-50
2022/03/22 05:03:21;;;;;;;20.88;15.02;;;;;;;5.51;63.34;101853.63;5042748;28;20052;-53
2022/03/22 05:08:33;;;;;;;22.05;16.70;;;;;;;5.43;63.58;101858.44;5047854;28;20501;-54
2022/03/22 05:11:03;;;;;;;25.95;17.85;;;;;;;5.45;63.89;101852.69;5048661;28;20045;-50
2022/03/22 05:13:30;;;;;;;22.70;17.80;;;;;;;5.47;64.53;101859.63;5048975;28;20056;-54
2022/03/22 05:15:57;;;;;;;23.13;15.57;;;;;;;5.52;64.27;101864.41;5051452;28;20060;-54
2022/03/22 05:18:26;;;;;;;25.13;17.60;;;;;;;5.53;64.47;101871.63;5045688;28;20053;-54
2022/03/22 05:20:54;;;;;;;22.23;16.23;;;;;;;5.66;64.01;101871.34;5050289;28;20061;-53
2022/03/22 05:23:21;;;;;;;23.45;16.48;;;;;;;5.69;64.17;101876.38;5042716;28;20053;-51
2022/03/22 05:25:49;;;;;;;23.40;18.50;;;;;;;5.74;63.30;101874.81;5031558;28;20061;-55
2022/03/22 05:28:17;;;;;;;22.65;17.20;;;;;;;5.72;62.81;101879.75;5037062;28;20159;-52
2022/03/22 05:30:45;;;;;;;23.90;17.27;;;;;;;5.73;62.71;101875.88;5032907;28;20049;-55
2022/03/22 05:33:12;;;;;;;22.77;17.48;;;;;;;5.74;62.35;101888.63;5037342;28;20076;-56
2022/03/22 05:35:39;;;;;;;24.88;18.52;;;;;;;5.74;62.51;101883.09;5038041;28;20057;-53
2022/03/22 05:38:07;;;;;;;22.17;16.15;;;;;;;5.71;62.36;101870.59;5042310;28;20057;-50
2022/03/22 05:40:34;;;;;;;23.65;17.73;;;;;;;5.76;61.82;101883.69;5051718;28;20469;-53
2022/03/22 05:43:01;;;;;;;20.30;15.75;;;;;;;5.78;61.85;101885.13;5048396;28;20053;-52
2022/03/22 05:45:31;;;;;;;23.77;16.55;;;;;;;5.79;61.32;101892.31;5034927;28;20053;-50
2022/03/22 05:48:00;;;;;;;20.85;16.50;;;;;;;5.79;61.38;101897.84;5050148;28;20052;-50
2022/03/22 05:50:28;;;;;;;22.30;16.20;;;;;;;5.77;61.07;101901.94;5046602;28;20501;-55
2022/03/22 05:52:55;;;;;;;19.85;16.13;;;;;;;5.75;61.94;101898.59;5053409;28;20044;-53
2022/03/22 05:55:22;;;;;;;18.33;14.52;;;;;;;5.77;62.00;101899.19;5050214;28;20053;-51
2022/03/22 05:57:50;;;;;;;22.38;17.00;;;;;;;5.80;61.97;101896.78;5052378;28;20064;-50
2022/03/22 06:00:19;;;;;;;23.45;16.98;;;;;;;5.82;61.71;101899.28;5051344;28;20048;-50
2022/03/22 06:02:47;;;;;;;22.63;16.92;;;;;;;5.82;61.71;101896.53;5049430;28;20064;-50
2022/03/22 06:05:15;;;;;;;23.42;17.30;;;;;;;5.85;62.06;101898.78;5051724;28;20049;-52
2022/03/22 06:07:43;;;;;;;23.13;17.77;;;;;;;5.94;61.85;101900.06;5042109;28;20057;-54
2022/03/22 06:10:13;;;;;;;21.55;16.42;;;;;;;6.02;61.38;101893.31;5054218;28;20063;-51
2022/03/22 06:12:42;;;;;;;21.65;17.65;;;;;;;6.07;61.69;101899.78;5054001;28;20478;-53
2022/03/22 06:15:17;;;;;;;20.63;16.88;;;;;;;6.17;61.33;101898.28;5043151;28;20502;-52
2022/03/22 06:17:50;;;;;;;19.85;16.15;;;;;;;6.28;61.16;101900.16;5053442;28;20413;-54
2022/03/22 06:20:19;;;;;;;21.20;16.17;;;;;;;6.39;60.87;101903.94;5054154;28;20052;-50
2022/03/22 06:22:48;;;;;;;22.42;15.25;;;;;;;6.48;60.77;101903.25;5053772;28;20056;-51
2022/03/22 06:25:16;;;;;;;21.33;16.50;;;;;;;6.57;60.58;101911.13;5045628;28;20041;-50
2022/03/22 06:27:45;;;;;;;21.58;15.07;;;;;;;6.70;60.24;101911.66;5050226;28;20052;-52
2022/03/22 06:30:15;;;;;;;17.43;15.43;;;;;;;6.85;59.97;101899.97;5034273;28;20478;-53
2022/03/22 06:32:43;;;;;;;21.63;15.88;;;;;;;7.02;59.60;101905.47;5041291;28;20573;-52
2022/03/22 06:35:12;;;;;;;22.73;16.15;;;;;;;7.21;59.55;101907.94;5046230;28;20046;-54
2022/03/22 06:37:40;;;;;;;20.07;16.20;;;;;;;7.37;58.91;101906.19;5038853;28;20059;-50
2022/03/22 06:40:09;;;;;;;20.05;15.63;;;;;;;7.57;58.44;101906.44;5035468;28;20434;-52
2022/03/22 06:42:37;;;;;;;21.35;16.17;;;;;;;7.80;57.96;101913.66;5041255;28;20398;-55
2022/03/22 06:45:06;;;;;;;22.73;16.00;;;;;;;7.94;58.01;101916.88;5052523;28;20390;-53
2022/03/22 06:47:35;;;;;;;21.17;15.82;;;;;;;8.02;57.55;101908.06;5045975;28;20053;-52
2022/03/22 06:50:03;;;;;;;20.47;16.27;;;;;;;8.16;57.47;101919.56;5050086;28;20041;-52
2022/03/22 06:52:32;;;;;;;17.80;14.38;;;;;;;8.36;56.90;101924.50;5046321;28;20463;-55
2022/03/22 06:55:00;;;;;;;20.13;15.32;;;;;;;8.62;55.93;101913.63;5044859;28;20056;-53
2022/03/22 06:57:31;;;;;;;21.20;15.48;;;;;;;9.10;54.84;101914.50;5050505;28;20049;-51
2022/03/22 06:59:59;;;;;;;17.70;15.55;;;;;;;9.90;53.46;101914.28;5041610;28;20498;-50
2022/03/22 07:02:26;;;;;;;19.27;15.25;;;;;;;10.75;51.32;101908.22;5046507;28;20057;-52
2022/03/22 07:04:53;;;;;;;22.92;15.88;;;;;;;11.63;49.28;101906.88;5051896;28;20064;-52
2022/03/22 07:07:21;;;;;;;17.42;14.63;;;;;;;12.53;47.13;101911.34;5044243;28;20077;-53
2022/03/22 07:09:50;;;;;;;20.00;13.85;;;;;;;13.40;45.55;101899.28;5048490;28;20509;-54
2022/03/22 07:12:17;;;;;;;15.30;12.87;;;;;;;14.30;43.74;101901.38;5036408;28;20056;-56
2022/03/22 07:14:44;;;;;;;21.27;13.50;;;;;;;15.11;41.71;101901.13;5038237;28;20064;-53
2022/03/22 07:17:15;;;;;;;15.93;11.73;;;;;;;16.06;40.22;101900.56;5037405;28;20057;-51
2022/03/22 07:19:42;;;;;;;17.02;13.25;;;;;;;16.89;38.08;101903.84;5049931;28;20052;-52
2022/03/22 07:22:10;;;;;;;15.15;12.52;;;;;;;17.64;36.46;101898.38;5033448;28;20088;-56
2022/03/22 07:24:38;;;;;;;16.92;13.07;;;;;;;18.50;34.75;101898.75;5039212;28;20044;-55
2022/03/22 07:27:07;;;;;;;22.60;14.27;;;;;;;19.26;33.25;101903.75;5042178;28;20486;-55
2022/03/22 07:29:35;;;;;;;18.42;14.23;;;;;;;19.88;32.21;101913.56;5050164;28;20056;-54
2022/03/22 07:32:03;;;;;;;16.45;14.75;;;;;;;20.56;31.60;101898.41;5041717;28;20049;-54
2022/03/22 07:34:31;;;;;;;17.65;14.68;;;;;;;21.19;30.56;101901.06;5047226;28;20064;-50
2022/03/22 07:36:58;;;;;;;19.08;13.82;;;;;;;21.79;29.76;101893.75;5050154;28;20053;-54
2022/03/22 07:39:27;;;;;;;18.63;14.30;;;;;;;22.41;29.15;101896.47;5032609;28;20057;-52
2022/03/22 07:41:54;;;;;;;16.90;15.10;;;;;;;22.96;28.28;101906.13;5040441;28;20054;-54
2022/03/22 07:44:23;;;;;;;19.05;15.85;;;;;;;23.42;27.96;101906.53;5039304;28;20066;-54
2022/03/22 07:46:50;;;;;;;20.15;17.98;;;;;;;23.89;27.11;101899.94;5044316;28;20045;-52
2022/03/22 07:54:47;;;;;;;23.65;21.15;;;;;;;25.33;24.34;101890.66;5043943;28;20143;-50
2022/03/22 07:57:14;;;;;;;21.33;19.02;;;;;;;25.78;23.61;101892.59;5047760;28;20048;-55
2022/03/22 07:59:43;;;;;;;23.58;20.95;;;;;;;26.10;23.37;101886.53;5044141;28;20084;-54
2022/03/22 08:02:12;;;;;;;22.73;20.40;;;;;;;26.47;22.95;101891.50;5049977;28;20056;-49
2022/03/22 08:04:39;;;;;;;22.45;20.17;;;;;;;26.89;22.61;101888.31;5037233;28;20054;-51
2022/03/22 08:07:07;;;;;;;20.75;18.67;;;;;;;27.37;21.78;101895.34;5032438;28;20053;-53
2022/03/22 08:09:35;;;;;;;21.63;19.63;;;;;;;27.59;21.06;101890.59;5041209;28;20060;-53
2022/03/22 08:12:03;;;;;;;20.23;18.17;;;;;;;27.65;20.83;101894.72;5043621;28;20052;-51
2022/03/22 08:14:30;;;;;;;18.70;16.90;;;;;;;28.58;20.25;101888.69;5043947;28;20060;-55
2022/03/22 08:16:59;;;;;;;19.40;17.50;;;;;;;29.29;18.74;101885.16;5047206;28;20064;-52
2022/03/22 08:19:29;;;;;;;17.92;16.02;;;;;;;29.97;17.27;101885.09;5044414;28;20406;-54
2022/03/22 08:21:57;;;;;;;16.17;14.57;;;;;;;30.58;17.61;101881.19;5040600;28;20068;-51
2022/03/22 08:24:24;;;;;;;16.15;14.55;;;;;;;31.04;17.37;101880.91;5034202;28;20076;-54
2022/03/22 08:26:52;;;;;;;13.90;12.50;;;;;;;31.66;16.47;101876.25;5036024;28;20060;-52
2022/03/22 08:29:19;;;;;;;15.35;13.82;;;;;;;32.27;16.15;101887.09;5049957;28;20057;-50
2022/03/22 08:31:46;;;;;;;13.45;12.10;;;;;;;32.81;14.87;101879.81;5047156;28;20049;-53
2022/03/22 08:34:15;;;;;;;12.60;11.35;;;;;;;33.48;13.75;101874.22;5037745;28;20052;-53
2022/03/22 08:36:42;;;;;;;11.85;10.52;;;;;;;34.13;12.40;101870.94;5039620;28;20049;-54
2022/03/22 08:39:11;;;;;;;12.30;11.10;;;;;;;34.44;13.26;101880.19;5049556;28;20512;-54
2022/03/22 08:41:39;;;;;;;12.52;11.35;;;;;;;34.75;12.45;101877.84;5048282;28;20045;-55
2022/03/22 08:44:06;;;;;;;;;;;;;;;34.76;13.00;101873.69;5033007;28;20038;-54
2022/03/22 08:46:33;;;;;;;11.80;10.73;;;;;;;35.54;12.62;101863.47;5040474;28;19921;-54
2022/03/22 08:49:01;;;;;;;13.20;12.00;;;;;;;36.06;12.40;101861.63;5045675;28;20049;-53
2022/03/22 08:51:30;;;;;;;12.00;10.90;;;;;;;36.62;12.20;101860.38;5050086;28;20053;-55
2022/03/22 08:53:57;;;;;;;11.52;10.52;;;;;;;37.00;12.01;101856.66;5048142;28;20391;-52
2022/03/22 08:56:25;;;;;;;11.98;10.85;;;;;;;37.34;11.05;101859.66;5050324;28;20052;-54
2022/03/22 08:58:53;;;;;;;11.23;10.23;;;;;;;37.63;10.70;101864.44;5031646;28;20057;-56
2022/03/22 09:01:25;;;;;;;10.93;9.93;;;;;;;37.86;10.68;101860.28;5031405;28;20064;-53
2022/03/22 09:06:37;;;;;;;11.85;10.80;;;;;;;38.21;10.09;101860.25;5030505;28;20061;-54
2022/03/22 09:09:05;;;;;;;11.88;10.77;;;;;;;38.45;9.72;101868.47;5039596;28;20049;-58
2022/03/22 09:11:34;;;;;;;11.25;10.23;;;;;;;38.76;10.07;101862.66;5037866;28;20049;-52
2022/03/22 09:14:02;;;;;;;11.20;10.20;;;;;;;39.15;8.96;101863.16;5043592;28;20056;-56
2022/03/22 09:16:31;;;;;;;11.38;10.23;;;;;;;39.07;9.29;101853.91;5044138;28;20052;-55
2022/03/22 09:18:58;;;;;;;10.98;9.88;;;;;;;39.43;8.72;101857.41;5046175;28;20048;-55
2022/03/22 09:21:27;;;;;;;10.70;9.60;;;;;;;39.57;8.57;101857.56;5052729;28;20053;-55
2022/03/22 09:23:56;;;;;;;10.88;9.88;;;;;;;40.02;9.09;101855.13;5052396;28;20045;-52
2022/03/22 09:26:24;;;;;;;10.50;9.70;;;;;;;40.32;8.83;101846.66;5053095;28;20056;-52
2022/03/22 09:28:52;;;;;;;10.35;9.35;;;;;;;40.66;8.46;101854.19;5035200;28;20426;-56
2022/03/22 09:31:20;;;;;;;9.48;8.68;;;;;;;40.76;7.78;101852.88;5047260;28;20413;-57
2022/03/22 09:33:48;;;;;;;10.77;9.77;;;;;;;40.57;7.89;101846.25;5049164;28;20053;-56
2022/03/22 09:36:16;;;;;;;10.18;9.27;;;;;;;41.02;7.01;101840.69;5053307;28;20123;-56
2022/03/22 09:38:44;;;;;;;10.52;9.45;;;;;;;41.19;7.21;101849.88;5046449;28;20056;-54
2022/03/22 09:41:16;;;;;;;10.02;9.00;;;;;;;41.35;7.61;101845.69;5034697;28;20502;-56
2022/03/22 09:43:47;;;;;;;10.75;9.85;;;;;;;41.75;6.85;101841.53;5044220;28;20060;-51
2022/03/22 09:46:18;;;;;;;11.30;10.18;;;;;;;41.36;7.50;101842.28;5039056;28;20049;-56
2022/03/22 09:48:46;;;;;;;9.85;8.90;;;;;;;41.66;7.48;101847.44;5045604;28;20064;-54
2022/03/22 09:54:00;;;;;;;10.20;9.30;;;;;;;42.12;6.90;101838.22;5044224;28;20080;-57
2022/03/22 09:56:30;;;;;;;9.88;9.07;;;;;;;42.34;6.68;101838.63;5051745;28;20045;-54
2022/03/22 09:58:59;;;;;;;10.45;9.48;;;;;;;42.48;7.10;101837.00;5047258;28;20079;-57
2022/03/22 10:01:30;;;;;;;10.80;9.75;;;;;;;42.40;6.79;101835.81;5053410;28;20075;-57
2022/03/22 10:04:02;;;;;;;10.48;9.57;;;;;;;42.50;6.63;101839.44;5044820;28;20425;-57
2022/03/22 10:06:32;;;;;;;10.18;9.27;;;;;;;42.12;6.74;101835.31;5049311;28;20053;-57
2022/03/22 10:08:59;;;;;;;10.20;9.30;;;;;;;42.82;6.98;101830.88;5046768;28;20497;-57
2022/03/22 10:11:38;;;;;;;;;;;;;;;42.50;7.33;101830.66;5053753;28;20048;-57
2022/03/22 10:14:08;;;;;;;10.85;9.80;;;;;;;43.14;6.70;101823.91;5034066;28;20419;-57
2022/03/22 10:16:46;;;;;;;10.55;9.25;;;;;;;43.09;6.48;101815.88;5034071;28;20057;-55
2022/03/22 10:19:20;;;;;;;;;;;;;;;42.90;6.69;101824.09;5046197;28;20056;-57
2022/03/22 10:21:47;;;;;;;9.20;8.40;;;;;;;43.41;6.88;101809.34;5041214;28;19929;-56
2022/03/22 10:24:26;;;;;;;11.30;10.20;;;;;;;43.48;6.78;101812.63;5045568;28;20452;-56
2022/03/22 10:26:55;;;;;;;10.60;9.48;;;;;;;43.92;6.29;101811.53;5038368;28;20049;-57
2022/03/22 10:29:23;;;;;;;10.43;9.43;;;;;;;44.04;5.98;101806.59;5043966;28;20563;-55
2022/03/22 10:31:52;;;;;;;9.00;8.10;;;;;;;43.95;5.96;101806.75;5051207;28;20397;-56
2022/03/22 10:34:29;;;;;;;9.35;8.48;;;;;;;44.16;6.26;101798.69;5050759;28;20063;-53
2022/03/22 10:36:57;;;;;;;10.85;7.85;;;;;;;43.23;5.63;101798.69;5051158;28;20072;-56
2022/03/22 10:39:25;;;;;;;10.25;8.05;;;;;;;43.74;6.30;101806.00;5048861;28;20057;-54
2022/03/22 10:41:52;;;;;;;8.95;7.82;;;;;;;44.24;5.67;101801.97;5038371;28;20064;-56
2022/03/22 10:44:23;;;;;;;8.90;8.05;;;;;;;44.26;5.92;101797.19;5048619;28;20049;-54
2022/03/22 10:46:51;;;;;;;9.30;7.60;;;;;;;44.55;5.75;101792.38;5044149;28;20118;-54
2022/03/22 10:49:19;;;;;;;10.10;8.00;;;;;;;44.88;6.07;101796.84;5041005;28;20052;-53
2022/03/22 10:51:49;;;;;;;11.57;8.75;;;;;;;44.53;5.21;101795.03;5038420;28;20405;-56
2022/03/22 10:54:19;;;;;;;12.13;9.00;;;;;;;44.61;5.84;101790.28;5051446;28;20049;-56
2022/03/22 10:56:51;;;;;;;10.32;9.27;;;;;;;44.51;5.01;101783.00;5044015;28;20045;-54
2022/03/22 10:59:22;;;;;;;11.50;7.68;;;;;;;44.34;5.44;101783.63;5036847;28;20403;-57
2022/03/22 11:01:50;;;;;;;9.25;8.40;;;;;;;44.19;5.30;101785.94;5048882;28;20052;-57
2022/03/22 11:04:19;;;;;;;9.93;9.13;;;;;;;44.12;5.66;101777.56;5050330;28;20053;-55
2022/03/22 11:06:47;;;;;;;8.48;7.72;;;;;;;44.19;5.49;101788.88;5040662;28;20049;-57
2022/03/22 11:09:15;;;;;;;9.27;8.38;;;;;;;44.24;5.33;101779.28;5036726;28;20423;-56
2022/03/22 11:11:45;;;;;;;9.45;8.43;;;;;;;43.91;5.43;101783.53;5049372;28;20060;-55
2022/03/22 11:14:15;;;;;;;9.40;8.32;;;;;;;44.19;5.56;101774.19;5042820;28;20057;-56
2022/03/22 11:16:47;;;;;;;8.93;7.38;;;;;;;44.39;5.73;101773.25;5042422;28;20056;-54
2022/03/22 11:19:17;;;;;;;9.30;7.45;;;;;;;44.29;5.71;101772.66;5036226;28;20058;-55
2022/03/22 11:21:44;;;;;;;11.27;7.57;;;;;;;44.21;5.08;101770.69;5049661;28;20053;-56
2022/03/22 11:24:13;;;;;;;9.68;6.97;;;;;;;44.02;5.50;101765.19;5048199;28;20077;-56
2022/03/22 11:26:42;;;;;;;8.55;7.53;;;;;;;43.69;5.11;101762.75;5033898;28;20406;-57
2022/03/22 11:29:11;;;;;;;9.73;8.70;;;;;;;43.22;5.54;101761.88;5037355;28;20049;-52
2022/03/22 11:31:40;;;;;;;9.50;8.50;;;;;;;42.65;5.92;101764.06;5048180;28;20072;-56
2022/03/22 11:34:09;;;;;;;10.85;8.73;;;;;;;42.86;5.84;101761.16;5040243;28;20044;-55
2022/03/22 11:36:46;;;;;;;10.98;8.73;;;;;;;42.78;6.44;101752.78;5048205;28;20068;-53
2022/03/22 11:39:18;;;;;;;9.80;8.07;;;;;;;42.77;6.62;101765.00;5045683;28;20049;-55
2022/03/22 11:44:39;;;;;;;9.70;7.63;;;;;;;42.97;6.16;101752.53;5046943;28;20051;-55
2022/03/22 11:47:08;;;;;;;9.65;8.07;;;;;;;42.93;6.01;101749.00;5049988;28;20382;-54
2022/03/22 11:49:51;;;;;;;9.70;7.20;;;;;;;43.09;5.88;101747.59;5043201;28;20054;-54
2022/03/22 11:52:20;;;;;;;9.50;7.10;;;;;;;42.88;5.36;101744.66;5050640;28;20060;-54
2022/03/22 11:54:58;;;;;;;7.88;7.07;;;;;;;42.86;5.90;101746.50;5042628;28;20053;-57
2022/03/22 11:57:26;;;;;;;10.88;7.50;;;;;;;42.35;6.29;101739.84;5034728;28;20045;-57
2022/03/22 11:59:54;;;;;;;8.50;7.15;;;;;;;42.56;6.23;101744.47;5033224;28;20057;-56
2022/03/22 12:02:28;;;;;;;10.02;7.05;;;;;;;42.47;6.77;101743.81;5037812;28;20061;-57